Shawinigan, Canada
Current Conditions -  °F | °C
As of 5:00 PM on Thursday 27 Nov 2014 (Local Time) from CYRQ Reporting Station
Overcast Overcast  
Wind Chill: 25°   Ceiling: 19000
Heat Index: 25°   Visibility: 9mi
Dew Point: 10°   Wind: 3mph
Humidity: 54%   Direction: 360°N
Pressure: 30.04"   Gusts: NA
Location:  46.54°N, 72.75°W
Report Text: CYRQ 272200Z AUTO 36003KT 9SM OVC190 M04/M12 A3004 RMK SLP178
Loading
Personal Weather Stations






























Interactive Weather Map New forecast layout! Learn more

10-Day Weather Forecast

Advertisements
Track Severe Weather on mobile